Time;durP1;ratioP1;P1;durP2;ratioP2;P2;SDS_P1;SDS_P2;PMS_P1;PMS_P2;Temp;Humidity;BMP_temperature;BMP_pressure;BME280_temperature;BME280_humidity;BME280_pressure;Samples;Min_cycle;Max_cycle;Signal;HPM_P1;HPM_P2
2022/10/15 00:00:28;;;;;;;41.63;35.60;;;16.40;76.70;;;;;;5075180;28;20057;-72
2022/10/15 00:02:53;;;;;;;47.30;35.10;;;16.40;76.70;;;;;;5075643;28;20105;-72
2022/10/15 00:05:20;;;;;;;45.50;33.70;;;16.40;76.80;;;;;;5075857;28;20043;-72
2022/10/15 00:07:46;;;;;;;41.85;34.47;;;16.40;76.90;;;;;;5075707;28;20044;-72
2022/10/15 00:10:12;;;;;;;40.47;34.08;;;16.40;77.00;;;;;;5075748;28;20381;-71
2022/10/15 00:12:38;;;;;;;41.55;34.88;;;16.40;77.10;;;;;;5075498;28;20485;-71
2022/10/15 00:15:04;;;;;;;45.80;34.85;;;16.30;77.00;;;;;;5075688;28;20115;-72
2022/10/15 00:17:30;;;;;;;40.85;34.13;;;16.30;77.00;;;;;;5076833;28;20404;-72
2022/10/15 00:19:56;;;;;;;41.70;35.17;;;16.40;77.10;;;;;;5095575;28;20078;-72
2022/10/15 00:22:22;;;;;;;40.83;33.45;;;16.30;77.00;;;;;;5095836;28;20473;-72
2022/10/15 00:24:47;;;;;;;43.72;35.92;;;16.30;76.90;;;;;;5095401;28;20485;-72
2022/10/15 00:27:13;;;;;;;46.00;34.92;;;16.40;76.90;;;;;;5095863;28;20067;-72
2022/10/15 00:29:39;;;;;;;38.15;33.83;;;16.40;77.00;;;;;;5095551;28;20044;-72
2022/10/15 00:32:04;;;;;;;41.13;34.83;;;16.40;77.00;;;;;;5095427;28;20535;-72
2022/10/15 00:34:30;;;;;;;41.15;34.35;;;16.40;76.90;;;;;;5095058;28;20032;-72
2022/10/15 00:36:56;;;;;;;40.72;34.20;;;16.40;77.00;;;;;;5095606;28;20495;-72
2022/10/15 00:39:21;;;;;;;41.63;34.38;;;16.30;76.80;;;;;;5095367;28;20549;-72
2022/10/15 00:41:47;;;;;;;46.00;34.58;;;16.40;76.70;;;;;;5095308;28;20040;-72
2022/10/15 00:44:28;;;;;;;41.55;35.28;;;16.30;76.80;;;;;;5094969;28;20063;-72
2022/10/15 00:47:03;;;;;;;40.55;34.78;;;16.30;76.90;;;;;;5094921;28;20035;-72
2022/10/15 00:49:50;;;;;;;42.45;34.45;;;16.30;77.00;;;;;;5094984;28;20572;-72
2022/10/15 00:52:24;;;;;;;39.38;33.38;;;16.20;76.60;;;;;;5095070;28;20039;-72
2022/10/15 00:54:55;;;;;;;39.72;33.13;;;16.10;76.50;;;;;;5095289;28;20024;-72
2022/10/15 00:57:21;;;;;;;41.83;34.13;;;16.10;76.70;;;;;;5094579;28;20064;-72
2022/10/15 00:59:51;;;;;;;43.70;34.80;;;16.10;77.10;;;;;;5091735;28;20443;-72
2022/10/15 01:02:19;;;;;;;47.40;34.38;;;16.00;77.30;;;;;;5092365;28;20396;-73
2022/10/15 01:04:46;;;;;;;41.70;34.88;;;15.90;77.40;;;;;;5093363;28;20039;-72
2022/10/15 01:07:12;;;;;;;41.58;34.25;;;15.90;77.50;;;;;;5095023;28;20107;-72
2022/10/15 01:09:41;;;;;;;43.95;35.13;;;15.90;77.70;;;;;;5094848;28;20043;-72
2022/10/15 01:12:22;;;;;;;44.67;35.50;;;15.90;77.90;;;;;;5094585;28;20484;-71
2022/10/15 01:15:11;;;;;;;45.85;35.38;;;15.90;78.30;;;;;;5094085;28;20028;-72
2022/10/15 01:17:52;;;;;;;48.75;35.47;;;15.80;78.40;;;;;;5095044;28;20040;-72
2022/10/15 01:20:32;;;;;;;44.65;36.42;;;15.80;78.40;;;;;;5094474;28;20065;-72
2022/10/15 01:23:52;;;;;;;46.42;34.75;;;15.80;78.30;;;;;;5094205;28;20036;-73
2022/10/15 01:26:55;;;;;;;40.38;34.20;;;15.80;78.40;;;;;;5052188;28;20167;-72
2022/10/15 01:29:51;;;;;;;39.25;34.85;;;15.80;78.60;;;;;;5032129;28;20099;-72
2022/10/15 01:32:27;;;;;;;41.97;35.03;;;15.80;78.70;;;;;;5094553;28;20055;-72
2022/10/15 01:35:11;;;;;;;42.63;34.88;;;15.80;78.80;;;;;;5093760;28;20031;-72
2022/10/15 01:38:07;;;;;;;43.13;35.75;;;15.80;78.70;;;;;;5094035;28;20036;-73
2022/10/15 01:40:46;;;;;;;44.30;34.45;;;15.80;78.80;;;;;;5077957;28;20058;-72
2022/10/15 01:43:20;;;;;;;39.83;33.67;;;15.80;78.40;;;;;;5094165;28;20028;-71
2022/10/15 01:45:52;;;;;;;42.58;34.88;;;15.80;78.20;;;;;;5094180;28;20473;-72
2022/10/15 01:48:19;;;;;;;40.60;34.28;;;15.80;78.40;;;;;;5093893;28;20044;-72
2022/10/15 01:50:51;;;;;;;41.22;34.78;;;15.80;78.60;;;;;;5093903;28;20357;-72
2022/10/15 01:53:25;;;;;;;41.88;33.45;;;15.80;78.50;;;;;;5094086;28;20396;-72
2022/10/15 01:55:55;;;;;;;44.88;35.95;;;15.80;78.40;;;;;;5093975;28;20032;-72
2022/10/15 01:58:22;;;;;;;46.70;36.28;;;15.80;78.60;;;;;;5093730;28;20127;-72
2022/10/15 02:00:48;;;;;;;45.30;35.92;;;15.70;78.60;;;;;;5093914;28;20101;-72
2022/10/15 02:03:13;;;;;;;42.65;34.33;;;15.70;78.70;;;;;;5093777;28;20511;-72
2022/10/15 02:05:47;;;;;;;40.92;34.53;;;15.70;78.50;;;;;;5093716;28;20043;-72
2022/10/15 02:08:30;;;;;;;41.67;35.15;;;15.70;78.90;;;;;;5093578;28;20055;-72
2022/10/15 02:10:55;;;;;;;41.38;34.45;;;15.70;79.30;;;;;;5093178;28;20059;-72
2022/10/15 02:13:36;;;;;;;42.13;34.50;;;15.70;79.40;;;;;;5093516;28;20071;-72
2022/10/15 02:16:14;;;;;;;39.22;34.45;;;15.70;79.40;;;;;;5093595;28;20042;-72
2022/10/15 02:18:46;;;;;;;37.67;33.60;;;15.70;79.30;;;;;;5093240;28;20413;-73
2022/10/15 02:21:17;;;;;;;39.25;32.75;;;15.70;79.30;;;;;;5093436;28;20085;-73
2022/10/15 02:23:52;;;;;;;36.92;32.17;;;15.80;79.20;;;;;;5093233;28;20123;-72
2022/10/15 02:26:19;;;;;;;36.75;32.45;;;15.80;79.00;;;;;;5093473;28;20039;-72
2022/10/15 02:28:51;;;;;;;44.63;31.83;;;15.80;78.90;;;;;;5093724;28;20063;-72
2022/10/15 02:31:19;;;;;;;39.22;30.98;;;15.80;78.80;;;;;;5093249;28;20052;-72
2022/10/15 02:33:46;;;;;;;40.30;31.45;;;15.90;78.80;;;;;;5093232;28;20489;-72
2022/10/15 02:36:13;;;;;;;38.50;31.52;;;15.90;78.90;;;;;;5093147;28;20032;-72
2022/10/15 02:38:43;;;;;;;39.47;30.38;;;15.90;78.70;;;;;;5093324;28;20028;-72
2022/10/15 02:41:09;;;;;;;36.38;30.70;;;15.90;78.40;;;;;;5093410;28;20029;-72
2022/10/15 02:43:36;;;;;;;32.72;28.80;;;16.00;78.10;;;;;;5093058;28;20428;-72
2022/10/15 02:46:02;;;;;;;36.83;30.33;;;16.00;78.00;;;;;;5093455;28;20036;-72
2022/10/15 02:48:28;;;;;;;33.17;29.33;;;16.00;77.80;;;;;;5092917;28;20059;-72
2022/10/15 02:50:54;;;;;;;36.28;30.10;;;16.00;77.90;;;;;;5093286;28;20037;-72
2022/10/15 02:53:19;;;;;;;36.25;30.60;;;16.00;78.00;;;;;;5093090;28;20043;-72
2022/10/15 02:55:45;;;;;;;35.10;30.70;;;16.00;77.90;;;;;;5092944;28;20043;-72
2022/10/15 02:58:11;;;;;;;35.42;30.73;;;16.00;78.00;;;;;;5092962;28;20047;-72
2022/10/15 03:00:37;;;;;;;35.28;30.90;;;15.90;78.00;;;;;;5092621;28;20044;-72
2022/10/15 03:03:03;;;;;;;35.25;31.33;;;15.80;77.80;;;;;;5093102;28;20044;-72
2022/10/15 03:05:29;;;;;;;38.22;32.47;;;15.80;78.00;;;;;;5092912;28;20024;-72
2022/10/15 03:07:56;;;;;;;35.88;31.77;;;15.80;78.30;;;;;;5092899;28;20040;-72
2022/10/15 03:10:21;;;;;;;37.92;32.45;;;15.80;78.50;;;;;;5093065;28;20047;-72
2022/10/15 03:12:47;;;;;;;42.88;33.03;;;15.70;78.60;;;;;;5092596;28;20040;-72
2022/10/15 03:15:13;;;;;;;34.80;31.00;;;15.70;78.80;;;;;;5092667;28;20404;-72
2022/10/15 03:17:38;;;;;;;41.88;32.42;;;15.70;79.10;;;;;;5092760;28;20450;-72
2022/10/15 03:20:05;;;;;;;41.42;31.77;;;15.70;79.20;;;;;;5092706;28;20032;-72
2022/10/15 03:22:30;;;;;;;38.05;32.33;;;15.60;79.30;;;;;;5096449;28;20455;-72
2022/10/15 03:24:56;;;;;;;36.45;31.48;;;15.60;79.90;;;;;;5096941;28;20059;-72
2022/10/15 03:27:23;;;;;;;40.83;32.92;;;15.60;79.90;;;;;;5096890;28;20054;-72
2022/10/15 03:29:48;;;;;;;40.58;33.67;;;15.60;79.90;;;;;;5096824;28;20040;-72
2022/10/15 03:32:14;;;;;;;37.28;32.92;;;15.60;80.00;;;;;;5096577;28;20055;-71
2022/10/15 03:34:40;;;;;;;41.75;33.25;;;15.60;79.90;;;;;;5096594;28;20043;-72
2022/10/15 03:37:05;;;;;;;40.92;33.00;;;15.50;79.80;;;;;;5097031;28;20108;-72
2022/10/15 03:39:31;;;;;;;42.28;32.38;;;15.50;79.70;;;;;;5096515;28;20081;-71
2022/10/15 03:41:57;;;;;;;36.40;31.98;;;15.50;79.80;;;;;;5096231;28;20036;-72
2022/10/15 03:44:22;;;;;;;42.15;31.58;;;15.50;79.90;;;;;;5096638;28;20028;-72
2022/10/15 03:46:48;;;;;;;40.42;33.50;;;15.50;79.80;;;;;;5096364;28;20038;-72
2022/10/15 03:49:13;;;;;;;40.90;32.28;;;15.50;79.80;;;;;;5096297;28;20090;-72
2022/10/15 03:51:39;;;;;;;39.97;33.38;;;15.50;79.90;;;;;;5096337;28;20024;-72
2022/10/15 03:54:05;;;;;;;40.78;33.05;;;15.50;79.80;;;;;;5096100;28;20055;-73
2022/10/15 03:56:30;;;;;;;43.83;33.25;;;15.50;79.80;;;;;;5096351;28;20085;-71
2022/10/15 03:58:56;;;;;;;37.33;32.70;;;15.50;79.70;;;;;;5096032;28;20056;-72
2022/10/15 04:01:22;;;;;;;39.72;33.75;;;15.50;79.70;;;;;;5096207;28;20032;-72
2022/10/15 04:03:51;;;;;;;38.15;32.13;;;15.50;79.60;;;;;;5096104;28;20036;-72
2022/10/15 04:06:17;;;;;;;38.75;33.85;;;15.40;79.60;;;;;;5096195;28;20032;-72
2022/10/15 04:08:43;;;;;;;40.85;33.90;;;15.40;79.90;;;;;;5096125;28;20513;-72
2022/10/15 04:11:08;;;;;;;38.63;34.47;;;15.40;80.00;;;;;;5095968;28;20032;-71
2022/10/15 04:13:34;;;;;;;43.42;34.92;;;15.40;80.30;;;;;;5096094;28;20028;-72
2022/10/15 04:16:02;;;;;;;40.13;33.15;;;15.40;80.70;;;;;;5095732;28;20036;-72
2022/10/15 04:18:28;;;;;;;42.17;35.30;;;15.40;80.80;;;;;;5095552;28;20047;-72
2022/10/15 04:20:57;;;;;;;37.88;33.00;;;15.40;81.00;;;;;;5095662;28;20036;-72
2022/10/15 04:23:22;;;;;;;37.88;33.25;;;15.40;81.20;;;;;;5095494;28;20043;-72
2022/10/15 04:25:48;;;;;;;39.10;32.88;;;15.40;81.20;;;;;;5095597;28;20032;-72
2022/10/15 04:28:14;;;;;;;40.20;33.08;;;15.40;81.20;;;;;;5096006;28;20070;-72
2022/10/15 04:30:39;;;;;;;40.88;33.83;;;15.40;81.20;;;;;;5095639;28;20452;-72
2022/10/15 04:33:05;;;;;;;40.85;33.38;;;15.40;81.20;;;;;;5094841;28;20040;-72
2022/10/15 04:35:31;;;;;;;41.25;33.75;;;15.40;81.30;;;;;;5095567;28;20034;-72
2022/10/15 04:37:58;;;;;;;41.20;32.20;;;15.40;81.30;;;;;;5095366;28;20484;-72
2022/10/15 04:40:24;;;;;;;40.70;33.40;;;15.40;81.30;;;;;;5095073;28;20066;-72
2022/10/15 04:42:49;;;;;;;45.72;34.33;;;15.40;81.30;;;;;;5095340;28;20392;-72
2022/10/15 04:45:15;;;;;;;43.40;35.00;;;15.40;81.20;;;;;;5095316;28;20039;-72
2022/10/15 04:47:41;;;;;;;38.88;34.70;;;15.40;81.20;;;;;;5094990;28;20047;-72
2022/10/15 04:50:07;;;;;;;39.08;32.97;;;15.40;81.30;;;;;;5095003;28;20044;-72
2022/10/15 04:52:33;;;;;;;44.72;34.35;;;15.40;81.40;;;;;;5095137;28;20472;-72
2022/10/15 04:55:01;;;;;;;38.85;34.42;;;15.40;81.60;;;;;;5095255;28;20047;-72
2022/10/15 04:57:27;;;;;;;40.20;32.70;;;15.40;81.60;;;;;;5094988;28;20119;-73
2022/10/15 04:59:53;;;;;;;45.10;35.55;;;15.50;81.40;;;;;;5095029;28;20237;-72
2022/10/15 05:02:19;;;;;;;40.03;33.50;;;15.40;81.70;;;;;;5095242;28;20036;-72
2022/10/15 05:04:44;;;;;;;38.38;33.45;;;15.50;81.70;;;;;;5094974;28;20059;-73
2022/10/15 05:07:10;;;;;;;40.15;33.13;;;15.50;81.70;;;;;;5094834;28;20108;-72
2022/10/15 05:09:36;;;;;;;41.45;34.05;;;15.50;82.00;;;;;;5094754;28;20036;-72
2022/10/15 05:12:01;;;;;;;41.25;33.50;;;15.50;82.20;;;;;;5094892;28;20066;-72
2022/10/15 05:14:27;;;;;;;40.08;34.70;;;15.50;82.50;;;;;;5094633;28;20039;-72
2022/10/15 05:16:53;;;;;;;41.45;34.80;;;15.40;82.80;;;;;;5094862;28;20123;-72
2022/10/15 05:19:18;;;;;;;42.03;35.03;;;15.50;82.90;;;;;;5094779;28;20063;-72
2022/10/15 05:21:44;;;;;;;40.10;35.15;;;15.50;83.30;;;;;;5094431;28;20032;-72
2022/10/15 05:24:10;;;;;;;46.58;34.88;;;15.50;83.20;;;;;;5094298;28;20044;-72
2022/10/15 05:26:35;;;;;;;46.47;34.40;;;15.50;83.30;;;;;;5094193;28;20042;-72
2022/10/15 05:29:02;;;;;;;44.90;35.75;;;15.50;83.10;;;;;;5094166;28;20044;-72
2022/10/15 05:31:30;;;;;;;47.03;34.58;;;15.50;83.20;;;;;;5093992;28;20028;-72
2022/10/15 05:33:55;;;;;;;42.60;32.47;;;15.50;83.20;;;;;;5094546;28;20037;-72
2022/10/15 05:36:28;;;;;;;49.67;33.15;;;15.50;83.30;;;;;;5094261;28;20533;-72
2022/10/15 05:38:59;;;;;;;46.15;34.28;;;15.50;83.00;;;;;;5094155;28;20043;-72
2022/10/15 05:41:26;;;;;;;43.30;31.77;;;15.50;82.80;;;;;;5094304;28;20111;-72
2022/10/15 05:43:54;;;;;;;44.08;33.83;;;15.50;82.90;;;;;;5093562;28;20388;-72
2022/10/15 05:46:20;;;;;;;54.85;36.20;;;15.50;82.80;;;;;;5093825;28;20477;-72
2022/10/15 05:48:50;;;;;;;43.05;33.33;;;15.50;82.80;;;;;;5093697;28;20151;-72
2022/10/15 05:51:16;;;;;;;49.38;33.70;;;15.50;82.80;;;;;;5093948;28;20028;-73
2022/10/15 05:53:42;;;;;;;42.22;33.13;;;15.40;83.10;;;;;;5094116;28;20107;-72
2022/10/15 05:56:08;;;;;;;47.85;33.70;;;15.40;83.40;;;;;;5092504;28;20384;-72
2022/10/15 05:58:35;;;;;;;45.20;34.00;;;15.40;83.50;;;;;;5093107;28;20035;-71
2022/10/15 06:01:03;;;;;;;38.67;33.33;;;15.40;83.80;;;;;;5093745;28;20028;-72
2022/10/15 06:03:29;;;;;;;40.50;33.55;;;15.40;83.70;;;;;;5091741;28;20122;-71
2022/10/15 06:05:55;;;;;;;42.72;33.40;;;15.40;83.60;;;;;;5092499;28;20032;-72
2022/10/15 06:08:22;;;;;;;40.20;33.35;;;15.50;83.80;;;;;;5093433;28;20048;-71
2022/10/15 06:10:48;;;;;;;42.92;32.65;;;15.40;83.60;;;;;;5092966;28;20042;-71
2022/10/15 06:13:14;;;;;;;40.83;32.80;;;15.50;83.60;;;;;;5093079;28;20036;-72
2022/10/15 06:15:41;;;;;;;106.50;35.00;;;15.50;83.40;;;;;;5093071;28;20039;-74
2022/10/15 06:18:08;;;;;;;79.30;34.28;;;15.50;83.50;;;;;;5093598;28;20067;-71
2022/10/15 06:20:34;;;;;;;46.53;33.03;;;15.50;83.60;;;;;;5086697;28;20075;-73
2022/10/15 06:23:00;;;;;;;40.88;32.90;;;15.50;83.80;;;;;;5072786;28;20036;-72
2022/10/15 06:25:27;;;;;;;44.22;33.08;;;15.50;84.00;;;;;;5072892;28;20041;-72
2022/10/15 06:27:53;;;;;;;40.88;34.22;;;15.50;84.00;;;;;;5072091;28;20036;-72
2022/10/15 06:30:19;;;;;;;43.42;34.40;;;15.50;83.90;;;;;;5073193;28;20036;-73
2022/10/15 06:32:50;;;;;;;44.08;34.80;;;15.60;84.40;;;;;;5072691;28;20036;-73
2022/10/15 06:35:17;;;;;;;39.97;33.47;;;15.50;84.40;;;;;;5072721;28;20043;-74
2022/10/15 06:37:43;;;;;;;43.95;33.47;;;15.60;84.50;;;;;;5072809;28;20033;-73
2022/10/15 06:40:10;;;;;;;43.88;33.70;;;15.60;84.60;;;;;;5072931;28;20033;-73
2022/10/15 06:42:36;;;;;;;45.35;35.50;;;15.60;84.60;;;;;;5041957;28;20121;-74
2022/10/15 06:45:02;;;;;;;46.83;35.15;;;15.60;85.00;;;;;;5052780;28;20107;-73
2022/10/15 06:47:28;;;;;;;44.17;35.78;;;15.60;85.60;;;;;;5052162;28;20045;-74
2022/10/15 06:49:54;;;;;;;41.67;35.20;;;15.60;86.50;;;;;;5066158;28;20401;-74
2022/10/15 06:52:19;;;;;;;44.63;36.17;;;15.60;86.80;;;;;;5072650;28;20032;-73
2022/10/15 06:54:45;;;;;;;47.80;35.78;;;15.60;87.20;;;;;;5072456;28;20036;-72
2022/10/15 06:57:11;;;;;;;41.15;34.42;;;15.70;87.20;;;;;;5072601;28;20035;-73
2022/10/15 06:59:37;;;;;;;45.40;35.90;;;15.70;87.00;;;;;;5084180;28;20044;-72
2022/10/15 07:02:02;;;;;;;46.92;36.65;;;15.70;86.90;;;;;;5092985;28;20064;-71
2022/10/15 07:04:28;;;;;;;42.92;36.53;;;15.70;86.90;;;;;;5093387;28;20055;-71
2022/10/15 07:06:54;;;;;;;52.13;35.75;;;15.70;87.20;;;;;;5092676;28;20432;-87
2022/10/15 07:09:19;;;;;;;42.28;34.78;;;15.80;87.30;;;;;;5092879;28;20067;-75
2022/10/15 07:11:45;;;;;;;43.45;33.83;;;15.70;87.00;;;;;;5093255;28;20067;-89
2022/10/15 07:14:11;;;;;;;40.75;34.38;;;15.80;86.90;;;;;;5093010;28;20073;-73
2022/10/15 07:16:38;;;;;;;45.55;33.47;;;15.80;86.80;;;;;;5093608;28;20036;-72
2022/10/15 07:19:05;;;;;;;41.00;34.25;;;15.80;86.80;;;;;;5092586;28;20075;-75
2022/10/15 07:21:30;;;;;;;40.88;33.33;;;15.90;86.80;;;;;;5092894;28;20122;-72
2022/10/15 07:23:57;;;;;;;46.58;34.30;;;15.90;86.70;;;;;;5092150;28;20536;-72
2022/10/15 07:26:23;;;;;;;46.28;33.90;;;15.90;86.60;;;;;;5092966;28;20032;-71
2022/10/15 07:28:48;;;;;;;46.05;33.72;;;15.90;86.60;;;;;;5092399;28;20097;-72
2022/10/15 07:31:14;;;;;;;37.47;32.97;;;16.00;86.40;;;;;;5092656;28;20024;-72
2022/10/15 07:33:41;;;;;;;41.67;33.20;;;15.90;86.10;;;;;;5092561;28;20487;-72
2022/10/15 07:36:10;;;;;;;41.97;33.50;;;16.00;85.40;;;;;;5092333;28;20520;-71
2022/10/15 07:38:35;;;;;;;42.20;31.90;;;16.00;85.20;;;;;;5092793;28;20040;-72
2022/10/15 07:41:03;;;;;;;37.85;31.85;;;16.00;85.20;;;;;;5092346;28;20413;-72
2022/10/15 07:43:29;;;;;;;38.83;31.92;;;16.00;85.60;;;;;;5092580;28;20036;-71
2022/10/15 07:45:55;;;;;;;37.85;32.28;;;16.00;85.30;;;;;;5092606;28;20039;-71
2022/10/15 07:48:21;;;;;;;40.20;31.77;;;16.00;85.50;;;;;;5092730;28;20032;-74
2022/10/15 07:50:46;;;;;;;39.50;33.53;;;16.00;85.60;;;;;;5092596;28;20031;-72
2022/10/15 07:53:12;;;;;;;42.97;33.55;;;16.00;85.70;;;;;;5092189;28;20111;-73
2022/10/15 07:55:38;;;;;;;46.45;33.42;;;16.00;85.70;;;;;;5092194;28;20035;-71
2022/10/15 07:58:07;;;;;;;38.22;33.17;;;16.10;85.80;;;;;;5092366;28;20032;-72
2022/10/15 08:00:33;;;;;;;41.05;33.45;;;16.10;85.80;;;;;;5091898;28;20048;-72
2022/10/15 08:02:58;;;;;;;42.22;33.03;;;16.20;85.60;;;;;;5092542;28;20036;-72
2022/10/15 08:05:24;;;;;;;36.67;32.72;;;16.30;85.30;;;;;;5092588;28;20166;-77
2022/10/15 08:07:50;;;;;;;39.90;33.25;;;16.40;85.00;;;;;;5093530;28;20067;-72
2022/10/15 08:10:17;;;;;;;37.47;32.38;;;16.40;84.90;;;;;;5096027;28;20039;-72
2022/10/15 08:12:43;;;;;;;41.35;33.58;;;16.50;84.90;;;;;;5095986;28;20477;-72
2022/10/15 08:15:09;;;;;;;47.60;32.88;;;16.60;84.20;;;;;;5095769;28;20039;-72
2022/10/15 08:17:34;;;;;;;38.83;32.83;;;16.60;84.10;;;;;;5095834;28;20106;-72
2022/10/15 08:20:00;;;;;;;38.60;32.25;;;16.60;83.90;;;;;;5096091;28;20064;-72
2022/10/15 08:22:26;;;;;;;35.70;31.73;;;16.70;84.40;;;;;;5096036;28;20047;-72
2022/10/15 08:24:51;;;;;;;36.17;31.10;;;16.80;83.50;;;;;;5095713;28;20447;-77
2022/10/15 08:27:18;;;;;;;38.08;30.60;;;16.80;83.30;;;;;;5095604;28;20028;-72
2022/10/15 08:29:44;;;;;;;39.28;30.52;;;16.90;82.80;;;;;;5095041;28;20112;-73
2022/10/15 08:32:11;;;;;;;36.33;29.70;;;17.00;82.70;;;;;;5093678;28;20028;-72
2022/10/15 08:34:37;;;;;;;38.65;30.63;;;17.10;82.60;;;;;;5094989;28;20561;-73
2022/10/15 08:37:03;;;;;;;36.60;30.05;;;17.10;81.90;;;;;;5079549;28;20041;-72
2022/10/15 08:39:29;;;;;;;33.05;29.45;;;17.20;81.80;;;;;;5075394;28;20162;-72
2022/10/15 08:42:01;;;;;;;35.47;30.10;;;17.20;81.30;;;;;;5075186;28;20146;-72
2022/10/15 08:44:33;;;;;;;36.70;29.23;;;17.20;81.00;;;;;;5075128;28;20036;-72
2022/10/15 08:47:21;;;;;;;34.45;29.70;;;17.20;81.00;;;;;;5075136;28;20029;-72
2022/10/15 08:49:59;;;;;;;34.70;28.73;;;17.20;81.10;;;;;;5074912;28;20055;-73
2022/10/15 08:52:47;;;;;;;39.55;30.40;;;17.20;81.10;;;;;;5074806;28;20548;-72
2022/10/15 08:55:16;;;;;;;36.20;28.88;;;17.20;81.10;;;;;;5075111;28;20025;-73
2022/10/15 08:57:59;;;;;;;33.92;28.83;;;17.20;81.30;;;;;;5073903;28;20119;-72
2022/10/15 09:00:55;;;;;;;34.28;29.30;;;17.20;81.80;;;;;;5074686;28;20057;-82
2022/10/15 09:03:54;;;;;;;34.38;28.52;;;17.30;81.60;;;;;;5074814;28;20032;-73
2022/10/15 09:06:39;;;;;;;38.72;30.23;;;17.30;81.50;;;;;;5075045;28;20040;-81
2022/10/15 09:09:33;;;;;;;36.13;29.23;;;17.30;81.40;;;;;;5074626;28;20078;-81
2022/10/15 09:12:32;;;;;;;37.35;30.88;;;17.30;81.30;;;;;;5075062;28;20044;-73
2022/10/15 09:14:59;;;;;;;39.10;30.60;;;17.30;81.50;;;;;;5073272;28;20451;-72
2022/10/15 09:17:30;;;;;;;36.20;28.38;;;17.40;81.40;;;;;;5074708;28;20086;-79
2022/10/15 09:19:57;;;;;;;44.63;31.02;;;17.40;81.00;;;;;;5074514;28;20374;-74
2022/10/15 09:22:29;;;;;;;40.72;30.83;;;17.50;82.00;;;;;;5074575;28;20029;-72
2022/10/15 09:24:55;;;;;;;37.90;29.65;;;17.50;81.90;;;;;;5074610;28;20047;-82
2022/10/15 09:27:24;;;;;;;43.17;31.98;;;17.70;81.70;;;;;;5074850;28;20108;-72
2022/10/15 09:30:28;;;;;;;32.80;28.02;;;17.80;81.80;;;;;;5074411;28;20036;-73
2022/10/15 09:33:01;;;;;;;36.83;30.17;;;17.80;81.40;;;;;;5066058;28;20037;-72
2022/10/15 09:36:00;;;;;;;33.67;29.55;;;17.80;80.40;;;;;;5074507;28;20032;-73
2022/10/15 09:38:40;;;;;;;32.70;28.83;;;17.80;79.70;;;;;;5070296;28;20440;-72
2022/10/15 09:41:24;;;;;;;32.85;29.30;;;17.90;79.60;;;;;;5074458;28;20292;-72
2022/10/15 09:43:54;;;;;;;32.00;28.38;;;17.90;80.50;;;;;;5074187;28;20058;-72
2022/10/15 09:46:20;;;;;;;32.13;28.55;;;17.90;80.00;;;;;;5073824;28;20021;-73
2022/10/15 09:49:29;;;;;;;39.40;29.25;;;17.90;80.00;;;;;;5074092;28;20504;-72
2022/10/15 09:52:06;;;;;;;33.10;27.65;;;17.90;80.30;;;;;;5061907;28;20033;-73
2022/10/15 09:54:52;;;;;;;35.58;28.73;;;17.90;79.50;;;;;;5073693;28;20035;-72
2022/10/15 09:57:19;;;;;;;35.10;28.45;;;17.90;79.90;;;;;;5062658;28;20397;-73
2022/10/15 09:59:59;;;;;;;33.13;28.88;;;17.90;79.80;;;;;;5073780;28;20063;-74
2022/10/15 10:02:25;;;;;;;33.08;28.92;;;18.00;79.90;;;;;;5073843;28;20047;-73
2022/10/15 10:04:52;;;;;;;34.45;30.73;;;17.90;79.40;;;;;;5073703;28;20063;-73
2022/10/15 10:07:27;;;;;;;35.13;29.80;;;17.90;79.50;;;;;;5073507;28;20041;-77
2022/10/15 10:09:59;;;;;;;35.08;28.88;;;18.00;79.80;;;;;;5074026;28;20075;-72
2022/10/15 10:12:32;;;;;;;32.38;28.90;;;18.00;80.10;;;;;;5073725;28;20056;-72
2022/10/15 10:15:05;;;;;;;31.90;28.13;;;18.00;79.50;;;;;;5073423;28;20029;-73
2022/10/15 10:17:30;;;;;;;;;;;18.10;79.40;;;;;;5074025;28;20032;-72
2022/10/15 10:20:02;;;;;;;35.58;27.50;;;18.10;79.90;;;;;;5073665;28;19911;-72
2022/10/15 10:22:28;;;;;;;34.28;28.02;;;18.10;79.60;;;;;;5073390;28;20488;-72
2022/10/15 10:24:54;;;;;;;34.33;29.08;;;18.10;79.20;;;;;;5073468;28;20081;-72
2022/10/15 10:27:29;;;;;;;35.25;27.85;;;18.20;78.90;;;;;;5073417;28;20062;-72
2022/10/15 10:30:01;;;;;;;30.10;26.85;;;18.20;78.50;;;;;;5072818;28;20382;-73
2022/10/15 10:32:30;;;;;;;31.40;27.15;;;18.20;77.80;;;;;;5073195;28;20024;-72
2022/10/15 10:34:57;;;;;;;36.25;29.17;;;18.20;77.70;;;;;;5073382;28;20120;-73
2022/10/15 10:37:23;;;;;;;31.45;27.63;;;18.30;77.80;;;;;;5073300;28;20033;-73
2022/10/15 10:39:58;;;;;;;34.67;28.58;;;18.30;77.50;;;;;;5073434;28;20041;-73
2022/10/15 10:42:25;;;;;;;31.42;28.23;;;18.30;77.40;;;;;;5073257;28;20107;-73
2022/10/15 10:44:52;;;;;;;33.08;28.45;;;18.40;77.30;;;;;;5073410;28;20048;-72
2022/10/15 10:47:19;;;;;;;33.08;28.08;;;18.40;77.10;;;;;;5072975;28;20107;-73
2022/10/15 10:49:56;;;;;;;34.15;29.88;;;18.50;77.80;;;;;;5073112;28;20048;-73
2022/10/15 10:52:23;;;;;;;35.60;31.05;;;18.50;77.70;;;;;;5073181;28;20507;-74
2022/10/15 10:55:11;;;;;;;34.88;31.13;;;18.60;78.30;;;;;;5072901;28;20032;-73
2022/10/15 10:57:56;;;;;;;35.92;28.23;;;18.60;79.00;;;;;;5072799;28;20394;-73
2022/10/15 11:00:44;;;;;;;37.95;30.23;;;18.70;78.20;;;;;;5072886;28;20094;-80
2022/10/15 11:03:31;;;;;;;35.55;31.42;;;18.70;77.50;;;;;;5072958;28;20162;-73
2022/10/15 11:06:35;;;;;;;37.58;30.38;;;18.70;78.20;;;;;;5072791;28;20073;-80
2022/10/15 11:09:04;;;;;;;36.92;32.25;;;18.80;78.50;;;;;;5064747;28;20559;-77
2022/10/15 11:11:59;;;;;;;34.92;31.08;;;18.80;78.30;;;;;;5072942;28;20044;-73
2022/10/15 11:14:50;;;;;;;36.05;31.23;;;18.80;78.70;;;;;;5073064;28;20040;-73
2022/10/15 11:17:48;;;;;;;39.63;32.03;;;18.90;78.90;;;;;;5069505;28;20032;-83
2022/10/15 11:20:27;;;;;;;35.85;32.03;;;18.90;78.40;;;;;;5063867;28;20044;-82
2022/10/15 11:23:20;;;;;;;39.28;31.77;;;18.90;79.00;;;;;;5072768;28;20033;-84
2022/10/15 11:25:51;;;;;;;;;;;19.00;79.90;;;;;;5072952;28;20460;-72
2022/10/15 11:28:58;;;;;;;39.03;32.55;;;19.00;79.50;;;;;;5070665;28;19917;-72
2022/10/15 11:31:30;;;;;;;37.33;33.22;;;19.00;79.70;;;;;;5066850;28;20036;-79
2022/10/15 11:34:16;;;;;;;39.05;33.58;;;19.00;79.60;;;;;;5070222;28;20059;-73
2022/10/15 11:37:02;;;;;;;45.35;32.58;;;19.00;79.70;;;;;;5072365;28;20056;-81
2022/10/15 11:39:55;;;;;;;41.42;32.13;;;19.00;79.90;;;;;;5072258;28;20041;-72
2022/10/15 11:42:29;;;;;;;38.28;33.38;;;19.10;78.80;;;;;;5072863;28;20032;-82
2022/10/15 11:45:22;;;;;;;36.28;32.25;;;19.00;79.30;;;;;;5076574;28;20064;-82
2022/10/15 11:48:01;;;;;;;35.67;31.15;;;19.10;79.80;;;;;;5076453;28;20041;-73
2022/10/15 11:50:40;;;;;;;40.28;32.78;;;19.10;79.70;;;;;;5076239;28;20044;-72
2022/10/15 11:53:43;;;;;;;37.63;32.55;;;19.10;80.70;;;;;;5076282;28;20029;-82
2022/10/15 11:56:09;;;;;;;;;;;19.20;79.50;;;;;;5076475;28;20039;-73
2022/10/15 11:58:57;;;;;;;40.30;31.23;;;19.20;79.40;;;;;;5075921;28;20363;-72
2022/10/15 12:01:37;;;;;;;40.38;31.80;;;19.30;79.60;;;;;;5075905;28;20511;-73
2022/10/15 12:04:21;;;;;;;41.70;33.15;;;19.30;79.20;;;;;;5075869;28;20036;-73
2022/10/15 12:06:50;;;;;;;34.92;31.08;;;19.40;78.80;;;;;;5075869;28;20522;-73
2022/10/15 12:09:27;;;;;;;35.70;31.27;;;19.30;77.70;;;;;;5075881;28;20076;-73
2022/10/15 12:12:06;;;;;;;38.13;32.33;;;19.40;77.70;;;;;;5075596;28;20029;-73
2022/10/15 12:14:48;;;;;;;35.38;31.58;;;19.40;77.70;;;;;;5075719;28;20041;-72
2022/10/15 12:17:22;;;;;;;33.30;29.70;;;19.40;78.40;;;;;;5075959;28;20029;-73
2022/10/15 12:20:20;;;;;;;35.15;29.08;;;19.50;77.30;;;;;;5075652;28;20124;-73
2022/10/15 12:22:46;;;;;;;36.55;30.40;;;19.50;75.70;;;;;;5070697;28;20109;-78
2022/10/15 12:25:35;;;;;;;39.08;31.80;;;19.60;77.10;;;;;;5072611;28;20172;-73
2022/10/15 12:28:03;;;;;;;39.28;30.83;;;19.60;77.00;;;;;;5069503;28;20036;-81
2022/10/15 12:30:33;;;;;;;36.92;29.85;;;19.70;76.30;;;;;;5075460;28;20041;-72
2022/10/15 12:33:00;;;;;;;37.38;30.42;;;19.80;75.00;;;;;;5075515;28;20451;-81
2022/10/15 12:35:38;;;;;;;33.05;29.52;;;19.80;74.50;;;;;;5075660;28;20500;-81
2022/10/15 12:38:25;;;;;;;33.45;29.95;;;19.90;74.50;;;;;;5075432;28;20074;-73
2022/10/15 12:41:00;;;;;;;38.63;29.58;;;19.90;74.40;;;;;;5075157;28;20041;-73
2022/10/15 12:43:26;;;;;;;34.75;30.13;;;19.90;73.80;;;;;;5075185;28;20504;-74
2022/10/15 12:45:59;;;;;;;38.40;29.92;;;20.00;73.70;;;;;;5075179;28;20037;-73
2022/10/15 12:48:34;;;;;;;40.92;31.00;;;20.00;72.80;;;;;;5075015;28;20051;-73